sensor_id;sensor_type;location;lat;lon;timestamp;P1;durP1;ratioP1;P2;durP2;ratioP2
59824;SDS011;45703;50.898;6.054;2022-07-24T00:02:10;10.93;;;6.25;;
59824;SDS011;45703;50.898;6.054;2022-07-24T00:04:35;10.10;;;6.32;;
59824;SDS011;45703;50.898;6.054;2022-07-24T00:07:01;8.77;;;5.53;;
59824;SDS011;45703;50.898;6.054;2022-07-24T00:09:26;9.80;;;5.68;;
59824;SDS011;45703;50.898;6.054;2022-07-24T00:11:51;10.23;;;5.88;;
59824;SDS011;45703;50.898;6.054;2022-07-24T00:14:17;9.15;;;5.25;;
59824;SDS011;45703;50.898;6.054;2022-07-24T00:16:42;8.75;;;5.13;;
59824;SDS011;45703;50.898;6.054;2022-07-24T00:19:07;8.73;;;5.43;;
59824;SDS011;45703;50.898;6.054;2022-07-24T00:21:33;9.05;;;5.15;;
59824;SDS011;45703;50.898;6.054;2022-07-24T00:23:58;9.35;;;5.45;;
59824;SDS011;45703;50.898;6.054;2022-07-24T00:26:24;8.70;;;4.85;;
59824;SDS011;45703;50.898;6.054;2022-07-24T00:28:49;8.90;;;4.93;;
59824;SDS011;45703;50.898;6.054;2022-07-24T00:31:15;8.90;;;4.95;;
59824;SDS011;45703;50.898;6.054;2022-07-24T00:33:40;8.43;;;4.65;;
59824;SDS011;45703;50.898;6.054;2022-07-24T00:36:06;7.80;;;4.57;;
59824;SDS011;45703;50.898;6.054;2022-07-24T00:38:32;8.82;;;5.18;;
59824;SDS011;45703;50.898;6.054;2022-07-24T00:40:57;8.93;;;5.10;;
59824;SDS011;45703;50.898;6.054;2022-07-24T00:43:23;8.95;;;5.20;;
59824;SDS011;45703;50.898;6.054;2022-07-24T00:45:48;9.40;;;4.97;;
59824;SDS011;45703;50.898;6.054;2022-07-24T00:48:13;8.23;;;4.53;;
59824;SDS011;45703;50.898;6.054;2022-07-24T00:50:41;8.32;;;4.97;;
59824;SDS011;45703;50.898;6.054;2022-07-24T00:53:08;8.07;;;4.72;;
59824;SDS011;45703;50.898;6.054;2022-07-24T00:55:33;8.63;;;4.70;;
59824;SDS011;45703;50.898;6.054;2022-07-24T00:57:59;8.98;;;4.70;;
59824;SDS011;45703;50.898;6.054;2022-07-24T01:00:24;8.95;;;4.88;;
59824;SDS011;45703;50.898;6.054;2022-07-24T01:02:50;8.60;;;4.40;;
59824;SDS011;45703;50.898;6.054;2022-07-24T01:05:16;7.70;;;4.53;;
59824;SDS011;45703;50.898;6.054;2022-07-24T01:07:42;8.75;;;4.70;;
59824;SDS011;45703;50.898;6.054;2022-07-24T01:10:08;8.40;;;4.63;;
59824;SDS011;45703;50.898;6.054;2022-07-24T01:12:34;8.02;;;4.47;;
59824;SDS011;45703;50.898;6.054;2022-07-24T01:15:00;8.55;;;4.30;;
59824;SDS011;45703;50.898;6.054;2022-07-24T01:17:29;9.35;;;4.80;;
59824;SDS011;45703;50.898;6.054;2022-07-24T01:19:56;9.93;;;5.05;;
59824;SDS011;45703;50.898;6.054;2022-07-24T01:22:21;8.77;;;4.63;;
59824;SDS011;45703;50.898;6.054;2022-07-24T01:24:47;8.00;;;4.20;;
59824;SDS011;45703;50.898;6.054;2022-07-24T01:27:13;8.77;;;4.60;;
59824;SDS011;45703;50.898;6.054;2022-07-24T01:29:38;8.60;;;4.63;;
59824;SDS011;45703;50.898;6.054;2022-07-24T01:32:04;7.90;;;4.60;;
59824;SDS011;45703;50.898;6.054;2022-07-24T01:34:30;7.82;;;4.50;;
59824;SDS011;45703;50.898;6.054;2022-07-24T01:36:55;8.70;;;4.93;;
59824;SDS011;45703;50.898;6.054;2022-07-24T01:39:20;8.77;;;4.75;;
59824;SDS011;45703;50.898;6.054;2022-07-24T01:41:46;7.85;;;4.40;;
59824;SDS011;45703;50.898;6.054;2022-07-24T01:44:11;8.48;;;4.95;;
59824;SDS011;45703;50.898;6.054;2022-07-24T01:46:36;8.07;;;4.93;;
59824;SDS011;45703;50.898;6.054;2022-07-24T01:49:02;8.23;;;4.80;;
59824;SDS011;45703;50.898;6.054;2022-07-24T01:51:27;8.52;;;4.95;;
59824;SDS011;45703;50.898;6.054;2022-07-24T01:53:52;8.63;;;4.43;;
59824;SDS011;45703;50.898;6.054;2022-07-24T01:56:18;8.48;;;4.40;;
59824;SDS011;45703;50.898;6.054;2022-07-24T01:58:43;9.93;;;4.80;;
59824;SDS011;45703;50.898;6.054;2022-07-24T02:01:08;8.63;;;4.82;;
59824;SDS011;45703;50.898;6.054;2022-07-24T02:03:34;9.73;;;5.38;;
59824;SDS011;45703;50.898;6.054;2022-07-24T02:05:59;7.95;;;4.50;;
59824;SDS011;45703;50.898;6.054;2022-07-24T02:08:24;9.52;;;4.55;;
59824;SDS011;45703;50.898;6.054;2022-07-24T02:10:50;8.15;;;5.07;;
59824;SDS011;45703;50.898;6.054;2022-07-24T02:13:15;8.55;;;4.70;;
59824;SDS011;45703;50.898;6.054;2022-07-24T02:15:41;9.70;;;4.72;;
59824;SDS011;45703;50.898;6.054;2022-07-24T02:18:06;7.90;;;4.65;;
59824;SDS011;45703;50.898;6.054;2022-07-24T02:20:32;8.75;;;5.18;;
59824;SDS011;45703;50.898;6.054;2022-07-24T02:22:57;8.68;;;5.13;;
59824;SDS011;45703;50.898;6.054;2022-07-24T02:25:22;9.68;;;5.53;;
59824;SDS011;45703;50.898;6.054;2022-07-24T02:27:48;8.73;;;5.25;;
59824;SDS011;45703;50.898;6.054;2022-07-24T02:30:15;9.80;;;4.97;;
59824;SDS011;45703;50.898;6.054;2022-07-24T02:32:42;10.27;;;5.32;;
59824;SDS011;45703;50.898;6.054;2022-07-24T02:35:08;9.85;;;5.05;;
59824;SDS011;45703;50.898;6.054;2022-07-24T02:37:41;9.05;;;5.20;;
59824;SDS011;45703;50.898;6.054;2022-07-24T02:40:08;8.48;;;4.93;;
59824;SDS011;45703;50.898;6.054;2022-07-24T02:42:35;9.88;;;5.20;;
59824;SDS011;45703;50.898;6.054;2022-07-24T02:45:01;10.35;;;5.15;;
59824;SDS011;45703;50.898;6.054;2022-07-24T02:47:27;10.38;;;5.53;;
59824;SDS011;45703;50.898;6.054;2022-07-24T02:49:53;8.02;;;4.85;;
59824;SDS011;45703;50.898;6.054;2022-07-24T02:52:18;8.68;;;5.00;;
59824;SDS011;45703;50.898;6.054;2022-07-24T02:54:43;10.32;;;5.63;;
59824;SDS011;45703;50.898;6.054;2022-07-24T02:57:09;8.90;;;5.25;;
59824;SDS011;45703;50.898;6.054;2022-07-24T02:59:34;9.38;;;5.32;;
59824;SDS011;45703;50.898;6.054;2022-07-24T03:01:59;9.35;;;5.18;;
59824;SDS011;45703;50.898;6.054;2022-07-24T03:04:25;8.70;;;5.30;;
59824;SDS011;45703;50.898;6.054;2022-07-24T03:06:50;9.23;;;5.43;;
59824;SDS011;45703;50.898;6.054;2022-07-24T03:09:15;9.68;;;5.22;;
59824;SDS011;45703;50.898;6.054;2022-07-24T03:11:41;8.73;;;5.43;;
59824;SDS011;45703;50.898;6.054;2022-07-24T03:14:06;8.68;;;5.30;;
59824;SDS011;45703;50.898;6.054;2022-07-24T03:16:31;9.15;;;4.82;;
59824;SDS011;45703;50.898;6.054;2022-07-24T03:18:56;9.32;;;4.90;;
59824;SDS011;45703;50.898;6.054;2022-07-24T03:21:23;8.35;;;5.38;;
59824;SDS011;45703;50.898;6.054;2022-07-24T03:23:48;9.30;;;5.43;;
59824;SDS011;45703;50.898;6.054;2022-07-24T03:26:13;9.73;;;5.97;;
59824;SDS011;45703;50.898;6.054;2022-07-24T03:28:39;9.43;;;5.60;;
59824;SDS011;45703;50.898;6.054;2022-07-24T03:31:04;9.10;;;5.43;;
59824;SDS011;45703;50.898;6.054;2022-07-24T03:33:29;8.95;;;5.68;;
59824;SDS011;45703;50.898;6.054;2022-07-24T03:35:55;8.77;;;5.00;;
59824;SDS011;45703;50.898;6.054;2022-07-24T03:38:20;8.80;;;5.30;;
59824;SDS011;45703;50.898;6.054;2022-07-24T03:40:46;10.15;;;5.60;;
59824;SDS011;45703;50.898;6.054;2022-07-24T03:43:11;9.13;;;5.90;;
59824;SDS011;45703;50.898;6.054;2022-07-24T03:45:36;9.38;;;4.97;;
59824;SDS011;45703;50.898;6.054;2022-07-24T03:48:03;9.07;;;5.10;;
59824;SDS011;45703;50.898;6.054;2022-07-24T03:50:28;8.52;;;5.25;;
59824;SDS011;45703;50.898;6.054;2022-07-24T03:52:54;9.98;;;5.20;;
59824;SDS011;45703;50.898;6.054;2022-07-24T03:55:19;9.55;;;5.50;;
59824;SDS011;45703;50.898;6.054;2022-07-24T03:57:44;9.68;;;5.50;;
59824;SDS011;45703;50.898;6.054;2022-07-24T04:00:10;10.23;;;5.53;;
59824;SDS011;45703;50.898;6.054;2022-07-24T04:02:36;10.52;;;5.30;;
59824;SDS011;45703;50.898;6.054;2022-07-24T04:05:01;9.52;;;5.60;;
59824;SDS011;45703;50.898;6.054;2022-07-24T04:07:27;9.90;;;6.15;;
59824;SDS011;45703;50.898;6.054;2022-07-24T04:09:52;9.68;;;6.03;;
59824;SDS011;45703;50.898;6.054;2022-07-24T04:12:18;10.52;;;5.70;;
59824;SDS011;45703;50.898;6.054;2022-07-24T04:14:43;8.55;;;5.32;;
59824;SDS011;45703;50.898;6.054;2022-07-24T04:17:08;10.18;;;5.32;;
59824;SDS011;45703;50.898;6.054;2022-07-24T04:19:34;9.90;;;6.00;;
59824;SDS011;45703;50.898;6.054;2022-07-24T04:21:59;10.38;;;5.75;;
59824;SDS011;45703;50.898;6.054;2022-07-24T04:24:25;9.68;;;5.93;;
59824;SDS011;45703;50.898;6.054;2022-07-24T04:26:50;10.65;;;5.75;;
59824;SDS011;45703;50.898;6.054;2022-07-24T04:29:16;8.55;;;5.60;;
59824;SDS011;45703;50.898;6.054;2022-07-24T04:31:41;10.13;;;5.57;;
59824;SDS011;45703;50.898;6.054;2022-07-24T04:34:06;10.13;;;6.07;;
59824;SDS011;45703;50.898;6.054;2022-07-24T04:36:32;8.73;;;5.60;;
59824;SDS011;45703;50.898;6.054;2022-07-24T04:38:57;9.60;;;6.00;;
59824;SDS011;45703;50.898;6.054;2022-07-24T04:41:22;10.02;;;5.90;;
59824;SDS011;45703;50.898;6.054;2022-07-24T04:43:48;9.45;;;6.03;;
59824;SDS011;45703;50.898;6.054;2022-07-24T04:46:14;9.25;;;5.38;;
59824;SDS011;45703;50.898;6.054;2022-07-24T04:48:40;9.80;;;5.90;;
59824;SDS011;45703;50.898;6.054;2022-07-24T04:51:05;10.25;;;6.05;;
59824;SDS011;45703;50.898;6.054;2022-07-24T04:53:30;11.00;;;6.55;;
59824;SDS011;45703;50.898;6.054;2022-07-24T04:55:56;9.63;;;5.90;;
59824;SDS011;45703;50.898;6.054;2022-07-24T04:58:22;9.55;;;6.47;;
59824;SDS011;45703;50.898;6.054;2022-07-24T05:00:48;10.30;;;6.28;;
59824;SDS011;45703;50.898;6.054;2022-07-24T05:03:13;10.23;;;6.70;;
59824;SDS011;45703;50.898;6.054;2022-07-24T05:05:38;10.38;;;6.97;;
59824;SDS011;45703;50.898;6.054;2022-07-24T05:08:04;10.38;;;6.55;;
59824;SDS011;45703;50.898;6.054;2022-07-24T05:10:29;10.30;;;7.07;;
59824;SDS011;45703;50.898;6.054;2022-07-24T05:12:54;11.27;;;7.07;;
59824;SDS011;45703;50.898;6.054;2022-07-24T05:15:20;12.13;;;7.65;;
59824;SDS011;45703;50.898;6.054;2022-07-24T05:17:45;11.02;;;7.03;;
59824;SDS011;45703;50.898;6.054;2022-07-24T05:20:12;11.05;;;7.50;;
59824;SDS011;45703;50.898;6.054;2022-07-24T05:22:38;13.52;;;8.38;;
59824;SDS011;45703;50.898;6.054;2022-07-24T05:25:03;11.93;;;8.07;;
59824;SDS011;45703;50.898;6.054;2022-07-24T05:27:29;13.95;;;8.52;;
59824;SDS011;45703;50.898;6.054;2022-07-24T05:29:54;12.52;;;8.18;;
59824;SDS011;45703;50.898;6.054;2022-07-24T05:32:20;14.95;;;9.25;;
59824;SDS011;45703;50.898;6.054;2022-07-24T05:34:45;14.77;;;9.98;;
59824;SDS011;45703;50.898;6.054;2022-07-24T05:37:10;15.32;;;10.18;;
59824;SDS011;45703;50.898;6.054;2022-07-24T05:39:36;13.00;;;9.02;;
59824;SDS011;45703;50.898;6.054;2022-07-24T05:42:02;15.30;;;10.30;;
59824;SDS011;45703;50.898;6.054;2022-07-24T05:44:28;15.95;;;10.15;;
59824;SDS011;45703;50.898;6.054;2022-07-24T05:46:53;15.85;;;11.07;;
59824;SDS011;45703;50.898;6.054;2022-07-24T05:49:19;17.30;;;11.82;;
59824;SDS011;45703;50.898;6.054;2022-07-24T05:51:44;18.15;;;11.65;;
59824;SDS011;45703;50.898;6.054;2022-07-24T05:54:09;18.25;;;13.00;;
59824;SDS011;45703;50.898;6.054;2022-07-24T05:56:35;15.18;;;11.00;;
59824;SDS011;45703;50.898;6.054;2022-07-24T05:59:00;20.63;;;12.80;;
59824;SDS011;45703;50.898;6.054;2022-07-24T06:01:25;20.55;;;13.73;;
59824;SDS011;45703;50.898;6.054;2022-07-24T06:03:51;20.27;;;14.15;;
59824;SDS011;45703;50.898;6.054;2022-07-24T06:06:16;19.08;;;13.90;;
59824;SDS011;45703;50.898;6.054;2022-07-24T06:08:41;23.50;;;16.00;;
59824;SDS011;45703;50.898;6.054;2022-07-24T06:11:07;21.27;;;14.60;;
59824;SDS011;45703;50.898;6.054;2022-07-24T06:13:32;24.17;;;16.13;;
59824;SDS011;45703;50.898;6.054;2022-07-24T06:15:57;22.15;;;15.38;;
59824;SDS011;45703;50.898;6.054;2022-07-24T06:18:23;19.42;;;13.43;;
59824;SDS011;45703;50.898;6.054;2022-07-24T06:20:48;22.77;;;17.08;;
59824;SDS011;45703;50.898;6.054;2022-07-24T06:23:14;18.55;;;14.25;;
59824;SDS011;45703;50.898;6.054;2022-07-24T06:25:39;20.10;;;14.00;;
59824;SDS011;45703;50.898;6.054;2022-07-24T06:28:04;20.67;;;15.18;;
59824;SDS011;45703;50.898;6.054;2022-07-24T06:30:30;19.23;;;14.00;;
59824;SDS011;45703;50.898;6.054;2022-07-24T06:32:56;18.90;;;13.65;;
59824;SDS011;45703;50.898;6.054;2022-07-24T06:35:22;23.10;;;15.65;;
59824;SDS011;45703;50.898;6.054;2022-07-24T06:37:48;20.30;;;14.85;;
59824;SDS011;45703;50.898;6.054;2022-07-24T06:40:14;20.02;;;13.50;;
59824;SDS011;45703;50.898;6.054;2022-07-24T06:42:40;20.08;;;14.30;;
59824;SDS011;45703;50.898;6.054;2022-07-24T06:45:06;18.35;;;12.93;;
59824;SDS011;45703;50.898;6.054;2022-07-24T06:47:31;18.70;;;13.38;;
59824;SDS011;45703;50.898;6.054;2022-07-24T06:49:57;17.23;;;13.32;;
59824;SDS011;45703;50.898;6.054;2022-07-24T06:52:22;15.93;;;12.20;;
59824;SDS011;45703;50.898;6.054;2022-07-24T06:54:48;18.35;;;13.32;;
59824;SDS011;45703;50.898;6.054;2022-07-24T06:57:14;16.08;;;11.75;;
59824;SDS011;45703;50.898;6.054;2022-07-24T06:59:39;15.50;;;10.88;;
59824;SDS011;45703;50.898;6.054;2022-07-24T07:02:05;15.07;;;10.73;;
59824;SDS011;45703;50.898;6.054;2022-07-24T07:04:31;15.05;;;10.93;;
59824;SDS011;45703;50.898;6.054;2022-07-24T07:06:56;14.48;;;9.98;;
59824;SDS011;45703;50.898;6.054;2022-07-24T07:09:22;14.70;;;9.90;;
59824;SDS011;45703;50.898;6.054;2022-07-24T07:11:47;13.27;;;8.57;;
59824;SDS011;45703;50.898;6.054;2022-07-24T07:14:12;14.30;;;9.68;;
59824;SDS011;45703;50.898;6.054;2022-07-24T07:16:38;13.93;;;9.32;;
59824;SDS011;45703;50.898;6.054;2022-07-24T07:19:03;12.73;;;9.00;;
59824;SDS011;45703;50.898;6.054;2022-07-24T07:21:29;13.10;;;9.32;;
59824;SDS011;45703;50.898;6.054;2022-07-24T07:23:54;13.27;;;9.27;;
59824;SDS011;45703;50.898;6.054;2022-07-24T07:26:20;13.48;;;9.27;;
59824;SDS011;45703;50.898;6.054;2022-07-24T07:28:45;11.82;;;8.57;;
59824;SDS011;45703;50.898;6.054;2022-07-24T07:31:11;12.77;;;9.65;;
59824;SDS011;45703;50.898;6.054;2022-07-24T07:33:36;12.40;;;8.98;;
59824;SDS011;45703;50.898;6.054;2022-07-24T07:36:02;12.77;;;9.18;;
59824;SDS011;45703;50.898;6.054;2022-07-24T07:38:27;14.27;;;9.48;;
59824;SDS011;45703;50.898;6.054;2022-07-24T07:40:53;14.80;;;10.60;;
59824;SDS011;45703;50.898;6.054;2022-07-24T07:43:18;16.05;;;9.73;;
59824;SDS011;45703;50.898;6.054;2022-07-24T07:45:43;12.63;;;9.32;;
59824;SDS011;45703;50.898;6.054;2022-07-24T07:48:09;13.40;;;9.48;;
59824;SDS011;45703;50.898;6.054;2022-07-24T07:50:34;13.32;;;9.18;;
59824;SDS011;45703;50.898;6.054;2022-07-24T07:52:59;13.40;;;8.95;;
59824;SDS011;45703;50.898;6.054;2022-07-24T07:55:25;13.63;;;9.10;;
59824;SDS011;45703;50.898;6.054;2022-07-24T07:57:51;14.48;;;9.23;;
59824;SDS011;45703;50.898;6.054;2022-07-24T08:00:16;14.05;;;10.43;;
59824;SDS011;45703;50.898;6.054;2022-07-24T08:02:43;12.75;;;9.40;;
59824;SDS011;45703;50.898;6.054;2022-07-24T08:05:08;13.50;;;8.18;;
59824;SDS011;45703;50.898;6.054;2022-07-24T08:07:34;12.63;;;9.05;;
59824;SDS011;45703;50.898;6.054;2022-07-24T08:09:59;12.70;;;8.35;;
59824;SDS011;45703;50.898;6.054;2022-07-24T08:12:25;14.40;;;8.80;;
59824;SDS011;45703;50.898;6.054;2022-07-24T08:14:50;11.65;;;8.15;;
59824;SDS011;45703;50.898;6.054;2022-07-24T08:17:15;13.02;;;8.68;;
59824;SDS011;45703;50.898;6.054;2022-07-24T08:19:41;12.82;;;8.95;;
59824;SDS011;45703;50.898;6.054;2022-07-24T08:22:07;12.95;;;9.02;;
59824;SDS011;45703;50.898;6.054;2022-07-24T08:24:32;13.77;;;9.52;;
59824;SDS011;45703;50.898;6.054;2022-07-24T08:26:58;11.10;;;7.93;;
59824;SDS011;45703;50.898;6.054;2022-07-24T08:29:24;12.00;;;8.48;;
59824;SDS011;45703;50.898;6.054;2022-07-24T08:31:50;11.20;;;8.30;;
59824;SDS011;45703;50.898;6.054;2022-07-24T08:34:15;11.95;;;8.32;;
59824;SDS011;45703;50.898;6.054;2022-07-24T08:36:41;11.77;;;8.48;;
59824;SDS011;45703;50.898;6.054;2022-07-24T08:39:10;12.77;;;8.68;;
59824;SDS011;45703;50.898;6.054;2022-07-24T08:41:36;12.50;;;8.52;;
59824;SDS011;45703;50.898;6.054;2022-07-24T08:44:02;11.20;;;7.65;;
59824;SDS011;45703;50.898;6.054;2022-07-24T08:46:28;10.20;;;7.32;;
59824;SDS011;45703;50.898;6.054;2022-07-24T08:48:53;12.02;;;7.90;;
59824;SDS011;45703;50.898;6.054;2022-07-24T08:51:19;11.95;;;7.72;;
59824;SDS011;45703;50.898;6.054;2022-07-24T08:53:46;10.52;;;7.38;;
59824;SDS011;45703;50.898;6.054;2022-07-24T08:56:14;10.63;;;7.15;;
59824;SDS011;45703;50.898;6.054;2022-07-24T08:58:40;11.95;;;7.80;;
59824;SDS011;45703;50.898;6.054;2022-07-24T09:01:06;12.35;;;6.70;;
59824;SDS011;45703;50.898;6.054;2022-07-24T09:03:39;11.35;;;6.80;;
59824;SDS011;45703;50.898;6.054;2022-07-24T09:06:07;11.85;;;7.10;;
59824;SDS011;45703;50.898;6.054;2022-07-24T09:08:33;10.57;;;7.25;;
59824;SDS011;45703;50.898;6.054;2022-07-24T09:11:00;11.05;;;7.40;;
59824;SDS011;45703;50.898;6.054;2022-07-24T09:13:30;12.30;;;7.20;;
59824;SDS011;45703;50.898;6.054;2022-07-24T09:16:17;12.55;;;7.70;;
59824;SDS011;45703;50.898;6.054;2022-07-24T09:21:13;12.85;;;6.95;;
59824;SDS011;45703;50.898;6.054;2022-07-24T09:23:40;11.60;;;6.93;;
59824;SDS011;45703;50.898;6.054;2022-07-24T09:26:06;11.55;;;7.15;;
59824;SDS011;45703;50.898;6.054;2022-07-24T09:28:46;13.25;;;7.78;;
59824;SDS011;45703;50.898;6.054;2022-07-24T09:31:18;10.52;;;7.22;;
59824;SDS011;45703;50.898;6.054;2022-07-24T09:33:46;10.10;;;6.65;;
59824;SDS011;45703;50.898;6.054;2022-07-24T09:36:15;10.80;;;7.40;;
59824;SDS011;45703;50.898;6.054;2022-07-24T09:38:49;10.88;;;7.35;;
59824;SDS011;45703;50.898;6.054;2022-07-24T09:41:19;10.15;;;7.38;;
59824;SDS011;45703;50.898;6.054;2022-07-24T09:43:58;11.75;;;7.28;;
59824;SDS011;45703;50.898;6.054;2022-07-24T09:46:25;10.77;;;7.13;;
59824;SDS011;45703;50.898;6.054;2022-07-24T09:48:55;10.75;;;7.13;;
59824;SDS011;45703;50.898;6.054;2022-07-24T09:51:25;11.00;;;7.38;;
59824;SDS011;45703;50.898;6.054;2022-07-24T09:54:01;11.07;;;7.35;;
59824;SDS011;45703;50.898;6.054;2022-07-24T09:56:26;11.63;;;7.45;;
59824;SDS011;45703;50.898;6.054;2022-07-24T09:58:53;12.10;;;7.22;;
59824;SDS011;45703;50.898;6.054;2022-07-24T10:01:25;11.30;;;7.78;;
59824;SDS011;45703;50.898;6.054;2022-07-24T10:03:52;12.15;;;7.78;;
59824;SDS011;45703;50.898;6.054;2022-07-24T10:06:21;11.40;;;7.43;;
59824;SDS011;45703;50.898;6.054;2022-07-24T10:11:17;12.02;;;7.40;;
59824;SDS011;45703;50.898;6.054;2022-07-24T10:13:43;10.77;;;7.03;;
59824;SDS011;45703;50.898;6.054;2022-07-24T10:16:15;11.65;;;7.63;;
59824;SDS011;45703;50.898;6.054;2022-07-24T10:21:25;9.60;;;6.15;;
59824;SDS011;45703;50.898;6.054;2022-07-24T10:26:33;12.07;;;6.60;;
59824;SDS011;45703;50.898;6.054;2022-07-24T10:29:06;10.82;;;7.13;;
59824;SDS011;45703;50.898;6.054;2022-07-24T10:31:40;11.27;;;7.30;;
59824;SDS011;45703;50.898;6.054;2022-07-24T10:45:24;9.65;;;6.22;;
59824;SDS011;45703;50.898;6.054;2022-07-24T10:47:53;10.60;;;6.60;;
59824;SDS011;45703;50.898;6.054;2022-07-24T10:50:20;10.10;;;6.38;;
59824;SDS011;45703;50.898;6.054;2022-07-24T10:52:47;9.60;;;6.30;;
59824;SDS011;45703;50.898;6.054;2022-07-24T10:55:22;9.65;;;6.10;;
59824;SDS011;45703;50.898;6.054;2022-07-24T10:58:02;10.98;;;6.32;;
59824;SDS011;45703;50.898;6.054;2022-07-24T11:00:37;10.15;;;6.30;;
59824;SDS011;45703;50.898;6.054;2022-07-24T11:03:06;10.85;;;6.65;;
59824;SDS011;45703;50.898;6.054;2022-07-24T11:05:42;9.10;;;6.07;;
59824;SDS011;45703;50.898;6.054;2022-07-24T11:10:44;9.85;;;5.97;;
59824;SDS011;45703;50.898;6.054;2022-07-24T11:18:38;8.98;;;6.22;;
59824;SDS011;45703;50.898;6.054;2022-07-24T11:21:34;9.63;;;5.78;;
59824;SDS011;45703;50.898;6.054;2022-07-24T11:24:13;9.95;;;6.00;;
59824;SDS011;45703;50.898;6.054;2022-07-24T11:31:44;10.13;;;6.38;;
59824;SDS011;45703;50.898;6.054;2022-07-24T11:34:11;9.75;;;5.75;;
59824;SDS011;45703;50.898;6.054;2022-07-24T11:36:36;9.18;;;5.60;;
59824;SDS011;45703;50.898;6.054;2022-07-24T11:39:06;8.68;;;5.55;;
59824;SDS011;45703;50.898;6.054;2022-07-24T11:44:10;9.82;;;5.68;;
59824;SDS011;45703;50.898;6.054;2022-07-24T11:46:37;9.23;;;5.57;;
59824;SDS011;45703;50.898;6.054;2022-07-24T11:49:05;9.27;;;6.03;;
59824;SDS011;45703;50.898;6.054;2022-07-24T11:51:32;10.30;;;6.03;;
59824;SDS011;45703;50.898;6.054;2022-07-24T11:54:07;10.20;;;6.15;;
59824;SDS011;45703;50.898;6.054;2022-07-24T11:56:33;8.85;;;5.95;;
59824;SDS011;45703;50.898;6.054;2022-07-24T11:58:59;9.50;;;6.00;;
59824;SDS011;45703;50.898;6.054;2022-07-24T12:01:24;9.60;;;6.18;;
59824;SDS011;45703;50.898;6.054;2022-07-24T12:03:50;8.93;;;5.95;;
59824;SDS011;45703;50.898;6.054;2022-07-24T12:06:17;10.45;;;5.93;;
59824;SDS011;45703;50.898;6.054;2022-07-24T12:08:43;9.73;;;5.65;;
59824;SDS011;45703;50.898;6.054;2022-07-24T12:11:09;9.57;;;6.25;;
59824;SDS011;45703;50.898;6.054;2022-07-24T12:13:35;8.98;;;6.15;;
59824;SDS011;45703;50.898;6.054;2022-07-24T12:16:06;10.13;;;5.97;;
59824;SDS011;45703;50.898;6.054;2022-07-24T12:18:32;8.85;;;5.22;;
59824;SDS011;45703;50.898;6.054;2022-07-24T12:21:01;9.57;;;5.20;;
59824;SDS011;45703;50.898;6.054;2022-07-24T12:23:28;9.23;;;5.72;;
59824;SDS011;45703;50.898;6.054;2022-07-24T12:25:56;9.18;;;5.40;;
59824;SDS011;45703;50.898;6.054;2022-07-24T12:28:22;10.32;;;5.75;;
59824;SDS011;45703;50.898;6.054;2022-07-24T12:30:53;8.85;;;5.53;;
59824;SDS011;45703;50.898;6.054;2022-07-24T12:33:21;9.15;;;5.32;;
59824;SDS011;45703;50.898;6.054;2022-07-24T12:38:26;8.07;;;5.35;;
59824;SDS011;45703;50.898;6.054;2022-07-24T12:41:06;9.15;;;5.38;;
59824;SDS011;45703;50.898;6.054;2022-07-24T12:46:24;9.02;;;5.65;;
59824;SDS011;45703;50.898;6.054;2022-07-24T12:49:04;8.90;;;5.57;;
59824;SDS011;45703;50.898;6.054;2022-07-24T12:54:28;7.97;;;4.97;;
59824;SDS011;45703;50.898;6.054;2022-07-24T12:56:55;9.02;;;5.00;;
59824;SDS011;45703;50.898;6.054;2022-07-24T12:59:35;9.18;;;5.00;;
59824;SDS011;45703;50.898;6.054;2022-07-24T13:02:05;8.55;;;5.28;;
59824;SDS011;45703;50.898;6.054;2022-07-24T13:04:39;7.93;;;4.85;;
59824;SDS011;45703;50.898;6.054;2022-07-24T13:07:06;8.23;;;5.18;;
59824;SDS011;45703;50.898;6.054;2022-07-24T13:09:33;8.15;;;5.43;;
59824;SDS011;45703;50.898;6.054;2022-07-24T13:11:58;7.88;;;4.78;;
59824;SDS011;45703;50.898;6.054;2022-07-24T13:14:24;8.43;;;5.25;;
59824;SDS011;45703;50.898;6.054;2022-07-24T13:16:51;9.45;;;5.18;;
59824;SDS011;45703;50.898;6.054;2022-07-24T13:19:17;8.40;;;5.22;;
59824;SDS011;45703;50.898;6.054;2022-07-24T13:21:44;9.23;;;5.53;;
59824;SDS011;45703;50.898;6.054;2022-07-24T13:24:11;8.80;;;5.80;;
59824;SDS011;45703;50.898;6.054;2022-07-24T13:26:38;8.30;;;5.05;;
59824;SDS011;45703;50.898;6.054;2022-07-24T13:29:05;9.45;;;5.45;;
59824;SDS011;45703;50.898;6.054;2022-07-24T13:31:31;8.45;;;5.38;;
59824;SDS011;45703;50.898;6.054;2022-07-24T13:33:56;8.95;;;5.10;;
59824;SDS011;45703;50.898;6.054;2022-07-24T13:36:22;8.57;;;5.28;;
59824;SDS011;45703;50.898;6.054;2022-07-24T13:38:47;8.68;;;5.55;;
59824;SDS011;45703;50.898;6.054;2022-07-24T13:41:13;8.63;;;5.45;;
59824;SDS011;45703;50.898;6.054;2022-07-24T13:43:39;8.07;;;5.20;;
59824;SDS011;45703;50.898;6.054;2022-07-24T13:46:05;8.20;;;5.03;;
59824;SDS011;45703;50.898;6.054;2022-07-24T13:48:30;8.02;;;5.45;;
59824;SDS011;45703;50.898;6.054;2022-07-24T13:50:56;8.27;;;5.47;;
59824;SDS011;45703;50.898;6.054;2022-07-24T13:53:21;8.38;;;5.10;;
59824;SDS011;45703;50.898;6.054;2022-07-24T13:55:47;8.70;;;5.13;;
59824;SDS011;45703;50.898;6.054;2022-07-24T13:58:12;9.38;;;5.70;;
59824;SDS011;45703;50.898;6.054;2022-07-24T14:00:38;8.10;;;5.30;;
59824;SDS011;45703;50.898;6.054;2022-07-24T14:03:03;8.18;;;4.93;;
59824;SDS011;45703;50.898;6.054;2022-07-24T14:05:29;8.32;;;5.25;;
59824;SDS011;45703;50.898;6.054;2022-07-24T14:07:54;7.82;;;5.13;;
59824;SDS011;45703;50.898;6.054;2022-07-24T14:10:20;9.25;;;5.13;;
59824;SDS011;45703;50.898;6.054;2022-07-24T14:12:46;8.45;;;5.47;;
59824;SDS011;45703;50.898;6.054;2022-07-24T14:15:12;8.07;;;5.20;;
59824;SDS011;45703;50.898;6.054;2022-07-24T14:17:38;9.27;;;5.47;;
59824;SDS011;45703;50.898;6.054;2022-07-24T14:20:04;9.95;;;5.22;;
59824;SDS011;45703;50.898;6.054;2022-07-24T14:22:32;7.80;;;4.85;;
59824;SDS011;45703;50.898;6.054;2022-07-24T14:24:57;7.93;;;5.45;;
59824;SDS011;45703;50.898;6.054;2022-07-24T14:27:23;8.90;;;5.30;;
59824;SDS011;45703;50.898;6.054;2022-07-24T14:29:48;9.02;;;5.38;;
59824;SDS011;45703;50.898;6.054;2022-07-24T14:32:13;8.90;;;5.40;;
59824;SDS011;45703;50.898;6.054;2022-07-24T14:34:39;7.72;;;4.85;;
59824;SDS011;45703;50.898;6.054;2022-07-24T14:37:04;9.82;;;5.60;;
59824;SDS011;45703;50.898;6.054;2022-07-24T14:39:30;9.00;;;4.95;;
59824;SDS011;45703;50.898;6.054;2022-07-24T14:41:56;9.02;;;5.00;;
59824;SDS011;45703;50.898;6.054;2022-07-24T14:44:22;8.05;;;5.05;;
59824;SDS011;45703;50.898;6.054;2022-07-24T14:46:47;8.35;;;5.03;;
59824;SDS011;45703;50.898;6.054;2022-07-24T14:49:12;8.70;;;5.00;;
59824;SDS011;45703;50.898;6.054;2022-07-24T14:51:38;9.40;;;4.93;;
59824;SDS011;45703;50.898;6.054;2022-07-24T14:54:04;9.25;;;4.82;;
59824;SDS011;45703;50.898;6.054;2022-07-24T14:56:30;8.40;;;4.95;;
59824;SDS011;45703;50.898;6.054;2022-07-24T14:58:56;8.07;;;4.82;;
59824;SDS011;45703;50.898;6.054;2022-07-24T15:01:21;8.25;;;5.00;;
59824;SDS011;45703;50.898;6.054;2022-07-24T15:03:47;7.43;;;4.38;;
59824;SDS011;45703;50.898;6.054;2022-07-24T15:06:12;8.10;;;5.20;;
59824;SDS011;45703;50.898;6.054;2022-07-24T15:08:38;7.72;;;4.85;;
59824;SDS011;45703;50.898;6.054;2022-07-24T15:11:03;8.55;;;4.82;;
59824;SDS011;45703;50.898;6.054;2022-07-24T15:13:28;8.95;;;5.10;;
59824;SDS011;45703;50.898;6.054;2022-07-24T15:15:54;9.55;;;5.28;;
59824;SDS011;45703;50.898;6.054;2022-07-24T15:18:20;8.32;;;5.25;;
59824;SDS011;45703;50.898;6.054;2022-07-24T15:20:46;8.35;;;5.40;;
59824;SDS011;45703;50.898;6.054;2022-07-24T15:23:12;9.13;;;5.33;;